Time;durP1;ratioP1;P1;durP2;ratioP2;P2;SDS_P1;SDS_P2;PMS_P1;PMS_P2;Temp;Humidity;BMP_temperature;BMP_pressure;BME280_temperature;BME280_humidity;BME280_pressure;Samples;Min_cycle;Max_cycle;Signal;HPM_P1;HPM_P2
2022/07/25 00:01:55;;;;;;;5.82;4.18;;;;;;;28.57;31.62;99693.12;4460343;32;34026;-60
2022/07/25 00:04:24;;;;;;;5.87;4.05;;;;;;;28.47;31.76;99703.87;4460636;32;33653;-60
2022/07/25 00:06:52;;;;;;;6.00;4.00;;;;;;;28.54;31.62;99696.37;4461063;32;34544;-61
2022/07/25 00:09:19;;;;;;;6.47;4.68;;;;;;;28.59;31.54;99709.44;4454033;32;34473;-60
2022/07/25 00:11:47;;;;;;;5.50;3.92;;;;;;;28.62;31.46;99703.47;4465605;32;34096;-61
2022/07/25 00:14:15;;;;;;;6.80;4.35;;;;;;;28.54;31.57;99697.22;4463085;32;33888;-60
2022/07/25 00:16:42;;;;;;;6.40;4.32;;;;;;;28.48;31.87;99697.31;4459821;32;33101;-59
2022/07/25 00:19:10;;;;;;;6.95;4.28;;;;;;;28.55;31.58;99696.13;4467456;32;34700;-60
2022/07/25 00:21:38;;;;;;;6.12;3.65;;;;;;;28.34;31.67;99697.44;4461419;32;32987;-60
2022/07/25 00:24:05;;;;;;;6.55;4.20;;;;;;;28.30;31.78;99698.97;4464154;32;33667;-60
2022/07/25 00:26:34;;;;;;;6.78;4.43;;;;;;;28.32;31.77;99690.50;4456973;32;33275;-62
2022/07/25 00:29:06;;;;;;;7.30;4.22;;;;;;;28.27;31.88;99687.59;4452758;32;34963;-61
2022/07/25 00:31:34;;;;;;;7.75;3.90;;;;;;;28.25;31.87;99693.34;4458342;32;34079;-60
2022/07/25 00:34:02;;;;;;;5.15;3.33;;;;;;;28.19;31.96;99691.53;4445369;32;33502;-60
2022/07/25 00:36:30;;;;;;;9.48;4.05;;;;;;;28.13;32.10;99686.94;4459900;32;33476;-62
2022/07/25 00:38:58;;;;;;;6.65;4.07;;;;;;;28.22;31.94;99690.19;4451042;32;33623;-62
2022/07/25 00:41:26;;;;;;;7.70;4.18;;;;;;;27.99;32.25;99680.75;4453978;32;35436;-60
2022/07/25 00:43:53;;;;;;;6.70;3.95;;;;;;;28.02;32.19;99685.78;4453728;32;35043;-59
2022/07/25 00:46:21;;;;;;;5.65;3.53;;;;;;;28.10;32.06;99685.47;4460776;32;32523;-59
2022/07/25 00:48:50;;;;;;;6.93;3.90;;;;;;;28.05;32.11;99688.06;4459215;32;32876;-59
2022/07/25 00:51:18;;;;;;;5.95;4.00;;;;;;;28.04;32.10;99689.16;4459448;32;33909;-61
2022/07/25 00:53:46;;;;;;;6.80;3.40;;;;;;;27.97;32.18;99693.06;4456786;32;34722;-60
2022/07/25 00:56:14;;;;;;;7.68;3.92;;;;;;;27.99;32.08;99694.50;4451711;32;33434;-61
2022/07/25 00:58:44;;;;;;;6.93;4.07;;;;;;;27.81;32.39;99697.25;4445183;32;32795;-59
2022/07/25 01:01:11;;;;;;;5.60;3.80;;;;;;;27.94;32.24;99688.84;4450276;32;34329;-60
2022/07/25 01:03:39;;;;;;;6.75;4.00;;;;;;;27.83;32.45;99687.72;4454280;32;33231;-59
2022/07/25 01:06:07;;;;;;;6.35;3.72;;;;;;;27.87;32.32;99690.84;4458107;32;33017;-63
2022/07/25 01:08:35;;;;;;;6.37;3.95;;;;;;;27.89;32.46;99688.69;4456312;32;32965;-61
2022/07/25 01:11:03;;;;;;;5.60;3.67;;;;;;;27.73;32.54;99689.25;4446219;32;33731;-62
2022/07/25 01:13:32;;;;;;;6.75;3.70;;;;;;;27.72;32.54;99690.34;4458770;32;33812;-59
2022/07/25 01:16:00;;;;;;;5.45;3.87;;;;;;;27.74;32.43;99686.31;4458519;32;32159;-59
2022/07/25 01:18:28;;;;;;;8.13;3.85;;;;;;;27.76;32.45;99688.81;4465885;32;34809;-60
2022/07/25 01:20:56;;;;;;;6.50;3.70;;;;;;;27.78;32.39;99686.72;4464193;32;33846;-60
2022/07/25 01:23:23;;;;;;;6.68;3.90;;;;;;;27.73;32.42;99687.34;4463236;32;34994;-59
2022/07/25 01:25:51;;;;;;;6.85;4.03;;;;;;;27.59;32.82;99685.81;4464880;32;34127;-60
2022/07/25 01:28:18;;;;;;;5.80;4.05;;;;;;;27.69;32.72;99686.13;4453988;32;33614;-60
2022/07/25 01:30:46;;;;;;;6.15;3.65;;;;;;;27.64;32.59;99681.34;4459083;32;34050;-60
2022/07/25 01:33:15;;;;;;;5.78;3.28;;;;;;;27.42;33.00;99688.31;4462527;32;33819;-61
2022/07/25 01:35:43;;;;;;;6.25;3.75;;;;;;;27.44;33.01;99683.44;4457445;32;34321;-61
2022/07/25 01:38:11;;;;;;;7.05;3.70;;;;;;;27.49;32.85;99680.00;4455344;32;33896;-60
2022/07/25 01:40:39;;;;;;;6.20;4.07;;;;;;;27.39;32.98;99681.37;4456170;32;33879;-62
2022/07/25 01:43:08;;;;;;;5.50;3.62;;;;;;;27.34;33.20;99680.34;4466570;32;34079;-62
2022/07/25 01:45:36;;;;;;;5.00;3.42;;;;;;;27.40;33.14;99677.53;4455055;32;34296;-61
2022/07/25 01:48:03;;;;;;;5.45;3.67;;;;;;;27.45;33.06;99668.63;4466109;32;34701;-61
2022/07/25 01:50:31;;;;;;;6.12;3.55;;;;;;;27.35;33.27;99669.16;4465797;32;34227;-62
2022/07/25 01:52:59;;;;;;;6.82;4.12;;;;;;;27.36;33.33;99678.22;4462261;32;34745;-60
2022/07/25 01:55:26;;;;;;;7.10;3.70;;;;;;;27.19;33.68;99680.69;4456979;32;33399;-61
2022/07/25 01:57:56;;;;;;;6.65;3.95;;;;;;;27.13;33.74;99674.22;4456110;32;33137;-62
2022/07/25 02:00:24;;;;;;;7.75;3.90;;;;;;;26.88;34.13;99674.16;4464281;32;33206;-60
2022/07/25 02:05:38;;;;;;;6.78;4.00;;;;;;;26.88;34.20;99665.09;4453945;32;31879;-61
2022/07/25 02:08:06;;;;;;;5.43;3.60;;;;;;;26.81;34.23;99669.78;4461047;32;33428;-61
2022/07/25 02:10:36;;;;;;;7.12;4.37;;;;;;;26.76;34.55;99664.13;4469280;32;33780;-60
2022/07/25 02:13:03;;;;;;;6.25;3.80;;;;;;;26.70;34.72;99665.84;4468878;32;34057;-61
2022/07/25 02:15:31;;;;;;;7.62;4.50;;;;;;;26.59;34.97;99667.41;4462226;32;33506;-61
2022/07/25 02:17:59;;;;;;;6.35;4.00;;;;;;;26.59;34.72;99658.31;4467380;32;33886;-60
2022/07/25 02:20:26;;;;;;;6.32;4.03;;;;;;;26.57;34.71;99661.28;4463004;32;33963;-62
2022/07/25 02:22:54;;;;;;;6.30;4.00;;;;;;;26.48;34.88;99657.97;4459540;32;33649;-62
2022/07/25 02:25:21;;;;;;;5.93;3.78;;;;;;;26.54;34.80;99658.97;4457711;32;34728;-62
2022/07/25 02:27:49;;;;;;;6.97;3.60;;;;;;;26.57;34.90;99663.19;4452634;32;34939;-58
2022/07/25 02:30:17;;;;;;;6.55;3.70;;;;;;;26.57;34.67;99666.75;4454987;32;34637;-60
2022/07/25 02:32:44;;;;;;;5.78;3.90;;;;;;;26.43;35.07;99663.22;4457983;32;33519;-59
2022/07/25 02:35:12;;;;;;;7.32;4.18;;;;;;;26.44;34.94;99670.41;4466054;32;31741;-59
2022/07/25 02:37:40;;;;;;;8.82;4.45;;;;;;;26.34;35.32;99670.03;4455882;32;35372;-61
2022/07/25 02:40:08;;;;;;;6.32;3.87;;;;;;;26.35;35.45;99676.34;4447048;32;35145;-59
2022/07/25 02:42:36;;;;;;;6.53;4.00;;;;;;;26.08;36.11;99671.00;4455225;32;34669;-60
2022/07/25 02:45:04;;;;;;;7.25;4.15;;;;;;;26.21;35.87;99662.72;4466950;32;33111;-59
2022/07/25 02:47:32;;;;;;;6.47;3.85;;;;;;;25.99;36.31;99664.06;4458578;32;32088;-61
2022/07/25 02:50:00;;;;;;;9.20;4.35;;;;;;;26.10;35.96;99670.78;4465331;32;34988;-58
2022/07/25 02:52:28;;;;;;;6.72;3.92;;;;;;;25.89;36.27;99667.28;4454459;32;34506;-60
2022/07/25 02:54:56;;;;;;;5.37;3.45;;;;;;;25.87;36.17;99674.88;4458894;32;33315;-60
2022/07/25 02:57:23;;;;;;;8.82;4.43;;;;;;;25.81;36.09;99675.75;4468971;32;32828;-60
2022/07/25 02:59:51;;;;;;;7.18;4.37;;;;;;;25.67;36.36;99683.13;4467886;32;35125;-60
2022/07/25 03:02:18;;;;;;;5.97;4.37;;;;;;;25.70;36.29;99684.59;4465459;32;34510;-62
2022/07/25 03:04:46;;;;;;;8.18;4.12;;;;;;;25.69;36.35;99683.75;4459484;32;33108;-59
2022/07/25 03:07:14;;;;;;;7.95;4.28;;;;;;;25.64;36.49;99683.53;4459258;32;34620;-62
2022/07/25 03:09:41;;;;;;;7.53;4.05;;;;;;;25.62;36.54;99682.94;4466853;32;34029;-60
2022/07/25 03:12:09;;;;;;;8.80;4.75;;;;;;;25.61;36.60;99686.72;4466375;32;34054;-60
2022/07/25 03:14:37;;;;;;;5.60;3.75;;;;;;;25.54;36.76;99685.91;4457101;32;34694;-60
2022/07/25 03:17:04;;;;;;;6.22;4.03;;;;;;;25.47;36.75;99687.81;4465404;32;33965;-59
2022/07/25 03:19:32;;;;;;;6.35;4.12;;;;;;;25.43;36.59;99684.66;4457654;32;34706;-59
2022/07/25 03:22:00;;;;;;;6.85;4.28;;;;;;;25.33;36.87;99685.09;4462847;32;33827;-59
2022/07/25 03:24:27;;;;;;;6.35;3.72;;;;;;;25.37;36.91;99692.88;4458500;32;31852;-60
2022/07/25 03:26:55;;;;;;;6.32;3.95;;;;;;;25.33;37.10;99695.22;4463642;32;34762;-60
2022/07/25 03:29:22;;;;;;;7.25;4.07;;;;;;;25.35;36.93;99690.34;4466609;32;34059;-60
2022/07/25 03:31:50;;;;;;;7.18;4.53;;;;;;;25.39;36.93;99690.75;4465681;32;33798;-59
2022/07/25 03:34:18;;;;;;;8.40;3.70;;;;;;;25.27;37.20;99701.53;4455409;32;34551;-59
2022/07/25 03:36:45;;;;;;;5.20;3.42;;;;;;;25.30;37.08;99696.47;4453029;32;34715;-59
2022/07/25 03:39:13;;;;;;;6.43;3.65;;;;;;;25.28;37.12;99684.88;4458173;32;33974;-60
2022/07/25 03:41:40;;;;;;;9.05;4.62;;;;;;;25.27;37.19;99696.06;4468430;32;34782;-61
2022/07/25 03:44:08;;;;;;;7.20;4.20;;;;;;;25.20;37.34;99700.66;4465736;32;33183;-62
2022/07/25 03:46:36;;;;;;;9.48;4.22;;;;;;;25.17;37.33;99698.34;4462664;32;31467;-61
2022/07/25 03:49:04;;;;;;;6.80;3.83;;;;;;;25.21;37.25;99703.22;4467608;32;35054;-61
2022/07/25 03:51:32;;;;;;;6.40;3.92;;;;;;;25.31;36.83;99689.94;4459083;32;33937;-62
2022/07/25 03:54:02;;;;;;;7.90;4.22;;;;;;;25.28;36.98;99692.25;4462630;32;32141;-60
2022/07/25 03:56:35;;;;;;;8.88;3.95;;;;;;;25.26;37.15;99694.34;4462500;32;34817;-61
2022/07/25 03:59:12;;;;;;;7.25;3.67;;;;;;;25.35;37.01;99697.72;4461732;32;34815;-59
2022/07/25 04:01:41;;;;;;;7.43;3.72;;;;;;;25.32;37.04;99697.06;4463540;32;35206;-60
2022/07/25 04:04:09;;;;;;;6.00;3.58;;;;;;;25.45;36.75;99698.13;4454298;32;33727;-59
2022/07/25 04:06:38;;;;;;;6.40;3.65;;;;;;;25.32;37.15;99693.50;4453788;32;34130;-59
2022/07/25 04:09:07;;;;;;;7.68;3.78;;;;;;;25.38;37.51;99697.28;4459974;32;34047;-59
2022/07/25 04:11:37;;;;;;;7.93;4.00;;;;;;;25.58;37.06;99708.22;4453999;32;32478;-62
2022/07/25 04:14:05;;;;;;;8.48;3.78;;;;;;;25.69;36.99;99702.94;4456618;32;34421;-62
2022/07/25 04:16:33;;;;;;;6.15;3.90;;;;;;;25.73;36.93;99698.72;4454067;32;32600;-60
2022/07/25 04:19:04;;;;;;;5.65;3.72;;;;;;;25.78;36.88;99707.16;4458747;32;34046;-61
2022/07/25 04:21:33;;;;;;;5.93;3.60;;;;;;;25.71;36.61;99705.47;4459326;32;34912;-61
2022/07/25 04:24:00;;;;;;;7.95;4.03;;;;;;;25.65;36.73;99703.56;4441245;32;33331;-59
2022/07/25 04:26:28;;;;;;;8.50;4.00;;;;;;;25.77;36.62;99704.59;4452896;32;32607;-62
2022/07/25 04:28:57;;;;;;;10.50;4.43;;;;;;;25.85;36.61;99709.91;4454387;32;35061;-60
2022/07/25 04:31:25;;;;;;;8.82;4.47;;;;;;;25.81;36.92;99718.75;4464039;32;32799;-61
2022/07/25 04:33:52;;;;;;;13.13;4.37;;;;;;;25.91;36.81;99711.78;4456251;32;34311;-60
2022/07/25 04:36:20;;;;;;;8.02;3.72;;;;;;;25.99;37.02;99717.00;4458334;32;33741;-60
2022/07/25 04:38:48;;;;;;;8.48;4.00;;;;;;;26.13;36.60;99712.34;4454671;32;33824;-59
2022/07/25 04:41:15;;;;;;;8.07;4.60;;;;;;;26.27;36.40;99715.03;4452587;32;33484;-62
2022/07/25 04:43:43;;;;;;;7.57;4.00;;;;;;;26.32;36.23;99716.03;4460475;32;33474;-60
2022/07/25 04:46:21;;;;;;;6.90;3.90;;;;;;;26.46;35.99;99714.94;4454471;32;34818;-61
2022/07/25 04:48:50;;;;;;;6.50;4.00;;;;;;;26.55;35.78;99699.09;4458586;32;34021;-60
2022/07/25 04:51:17;;;;;;;9.70;4.45;;;;;;;26.52;35.66;99705.03;4456923;32;35181;-61
2022/07/25 04:53:45;;;;;;;6.78;3.95;;;;;;;26.59;35.88;99705.81;4457778;32;33254;-62
2022/07/25 04:56:13;;;;;;;6.50;4.07;;;;;;;26.63;35.87;99704.31;4454101;32;33931;-60
2022/07/25 04:58:41;;;;;;;6.57;4.05;;;;;;;26.79;35.83;99713.09;4464591;32;33818;-60
2022/07/25 05:01:08;;;;;;;6.43;3.85;;;;;;;26.90;35.88;99707.75;4462080;32;34677;-59
2022/07/25 05:03:36;;;;;;;7.62;4.70;;;;;;;27.09;36.24;99721.53;4459157;32;33325;-60
2022/07/25 05:06:04;;;;;;;6.30;4.12;;;;;;;27.37;34.87;99715.62;4459590;32;34977;-59
2022/07/25 05:08:31;;;;;;;7.22;3.90;;;;;;;27.41;35.41;99714.09;4460866;32;35147;-60
2022/07/25 05:10:59;;;;;;;6.03;3.97;;;;;;;27.58;35.50;99708.91;4459321;32;33713;-59
2022/07/25 05:13:27;;;;;;;15.00;5.05;;;;;;;27.70;34.87;99706.22;4459538;32;34649;-60
2022/07/25 05:15:54;;;;;;;10.77;4.53;;;;;;;27.86;34.70;99711.16;4465220;32;35570;-63
2022/07/25 05:18:22;;;;;;;7.60;4.07;;;;;;;27.68;35.02;99711.97;4455360;32;35152;-60
2022/07/25 05:20:49;;;;;;;6.50;4.12;;;;;;;27.96;34.73;99710.63;4453681;32;32967;-61
2022/07/25 05:23:17;;;;;;;6.35;3.90;;;;;;;28.08;34.52;99715.12;4459524;32;33354;-59
2022/07/25 05:25:45;;;;;;;5.68;3.65;;;;;;;28.24;34.38;99704.56;4453659;32;33623;-59
2022/07/25 05:28:13;;;;;;;7.18;3.90;;;;;;;28.19;33.83;99708.03;4455021;32;35143;-59
2022/07/25 05:30:41;;;;;;;6.22;4.07;;;;;;;28.20;33.46;99701.44;4457040;32;32310;-59
2022/07/25 05:33:09;;;;;;;6.30;3.80;;;;;;;28.22;33.74;99706.72;4445512;32;33356;-59
2022/07/25 05:35:36;;;;;;;6.32;4.12;;;;;;;28.28;33.05;99701.16;4453171;32;33755;-59
2022/07/25 05:38:04;;;;;;;5.95;3.62;;;;;;;28.34;33.48;99705.69;4457972;32;33995;-59
2022/07/25 05:40:32;;;;;;;7.57;4.03;;;;;;;28.25;33.40;99704.34;4461405;32;32933;-59
2022/07/25 05:42:59;;;;;;;6.00;3.72;;;;;;;27.56;34.48;99702.78;4455654;32;34003;-60
2022/07/25 05:45:30;;;;;;;6.55;3.53;;;;;;;27.99;33.36;99696.41;4458624;32;34069;-61
2022/07/25 05:47:58;;;;;;;6.85;3.53;;;;;;;28.12;32.80;99693.50;4464111;32;33917;-59
2022/07/25 05:50:25;;;;;;;7.57;3.72;;;;;;;28.02;33.36;99690.44;4465569;32;32691;-59
2022/07/25 05:52:53;;;;;;;7.32;3.87;;;;;;;27.87;33.35;99688.94;4465383;32;32096;-59
2022/07/25 05:55:21;;;;;;;10.63;3.60;;;;;;;27.66;33.16;99703.09;4468968;32;33914;-61
2022/07/25 05:57:48;;;;;;;7.43;3.85;;;;;;;27.66;33.24;99700.34;4466610;32;35089;-59
2022/07/25 06:00:16;;;;;;;5.57;3.30;;;;;;;27.37;33.81;99707.38;4464534;32;34864;-59
2022/07/25 06:02:44;;;;;;;6.62;3.30;;;;;;;27.85;33.78;99704.81;4455462;32;33404;-59
2022/07/25 06:05:12;;;;;;;6.00;3.75;;;;;;;27.89;33.40;99690.59;4459127;32;32491;-60
2022/07/25 06:07:40;;;;;;;7.03;3.72;;;;;;;27.95;33.45;99698.78;4454641;32;32884;-61
2022/07/25 06:10:08;;;;;;;5.45;3.55;;;;;;;28.02;32.39;99693.19;4453598;32;34229;-62
2022/07/25 06:12:36;;;;;;;7.05;3.42;;;;;;;27.71;32.73;99688.69;4453421;32;33518;-61
2022/07/25 06:15:04;;;;;;;7.30;3.42;;;;;;;27.57;33.08;99687.94;4457189;32;33808;-59
2022/07/25 06:17:32;;;;;;;6.37;3.50;;;;;;;27.49;33.68;99697.34;4456361;32;35211;-59
2022/07/25 06:20:00;;;;;;;7.32;3.45;;;;;;;27.99;31.51;99686.25;4454761;32;34590;-60
2022/07/25 06:22:29;;;;;;;6.95;3.60;;;;;;;28.03;31.42;99698.50;4460622;32;33496;-59
2022/07/25 06:24:57;;;;;;;6.22;3.95;;;;;;;27.86;32.16;99695.50;4456522;32;34660;-62
2022/07/25 06:27:24;;;;;;;6.50;3.33;;;;;;;28.10;31.55;99691.00;4457066;32;35253;-61
2022/07/25 06:29:55;;;;;;;5.55;3.60;;;;;;;28.21;31.68;99683.03;4458502;32;33937;-59
2022/07/25 06:32:23;;;;;;;6.55;3.00;;;;;;;28.15;31.93;99686.69;4459609;32;32742;-60
2022/07/25 06:34:51;;;;;;;5.62;3.45;;;;;;;28.41;31.71;99682.78;4457813;32;33903;-61
2022/07/25 06:37:18;;;;;;;7.05;2.87;;;;;;;28.23;31.04;99684.47;4453018;32;33938;-61
2022/07/25 06:39:46;;;;;;;5.15;3.12;;;;;;;28.36;30.62;99679.88;4464464;32;34343;-59
2022/07/25 06:42:13;;;;;;;7.75;3.78;;;;;;;28.21;31.02;99680.28;4469043;32;33230;-61
2022/07/25 06:44:42;;;;;;;8.10;3.55;;;;;;;28.09;31.20;99681.06;4457828;32;33923;-59
2022/07/25 06:47:13;;;;;;;6.15;3.40;;;;;;;28.00;31.29;99674.19;4453004;32;34753;-60
2022/07/25 06:49:41;;;;;;;5.57;3.00;;;;;;;28.28;30.38;99678.25;4452040;32;34300;-59
2022/07/25 06:52:09;;;;;;;5.82;3.15;;;;;;;28.31;30.60;99675.03;4459441;32;32287;-59
2022/07/25 06:54:37;;;;;;;7.97;3.37;;;;;;;28.08;30.58;99670.28;4457761;32;33886;-59
2022/07/25 06:57:04;;;;;;;7.15;3.40;;;;;;;27.97;31.35;99673.81;4457385;32;34896;-61
2022/07/25 06:59:32;;;;;;;7.15;3.10;;;;;;;28.31;30.89;99670.41;4453407;32;34109;-61
2022/07/25 07:02:01;;;;;;;5.35;3.20;;;;;;;28.44;31.21;99674.06;4458205;32;33863;-60
2022/07/25 07:04:28;;;;;;;7.75;3.40;;;;;;;28.06;31.33;99670.53;4461750;32;35016;-59
2022/07/25 07:06:56;;;;;;;8.10;3.20;;;;;;;28.59;30.63;99668.16;4461793;32;34005;-60
2022/07/25 07:09:24;;;;;;;5.22;3.15;;;;;;;28.53;30.80;99661.66;4466196;32;32602;-60
2022/07/25 07:11:51;;;;;;;5.20;3.17;;;;;;;28.72;30.54;99665.19;4453292;32;34715;-60
2022/07/25 07:14:19;;;;;;;5.75;3.25;;;;;;;28.37;30.66;99668.63;4454793;32;34395;-60
2022/07/25 07:16:46;;;;;;;7.10;3.20;;;;;;;28.49;30.73;99666.78;4467732;32;34075;-59
2022/07/25 07:19:16;;;;;;;8.63;2.83;;;;;;;28.79;30.39;99663.16;4455267;32;33683;-61
2022/07/25 07:21:44;;;;;;;6.82;3.25;;;;;;;28.82;30.71;99656.34;4443496;32;32048;-62
2022/07/25 07:24:13;;;;;;;7.72;3.30;;;;;;;29.12;30.39;99664.59;4454914;32;33819;-61
2022/07/25 07:26:52;;;;;;;7.95;3.20;;;;;;;28.92;30.46;99665.69;4463032;32;34129;-60
2022/07/25 07:29:20;;;;;;;6.37;3.08;;;;;;;28.74;30.69;99660.28;4455138;32;33425;-59
2022/07/25 07:31:48;;;;;;;6.72;3.92;;;;;;;28.55;30.79;99667.78;4458099;32;133059;-58
2022/07/25 07:34:16;;;;;;;8.63;3.58;;;;;;;28.45;30.90;99668.34;4460540;32;35446;-59
2022/07/25 07:36:44;;;;;;;6.07;3.28;;;;;;;28.99;30.04;99665.63;4466963;32;33895;-60
2022/07/25 07:39:11;;;;;;;7.10;3.70;;;;;;;28.77;30.61;99665.34;4458141;32;34694;-60
2022/07/25 07:41:39;;;;;;;5.35;3.30;;;;;;;28.94;30.49;99665.47;4452403;32;34795;-59
2022/07/25 07:44:07;;;;;;;7.82;3.87;;;;;;;28.81;29.87;99661.03;4452917;32;34561;-61
2022/07/25 07:46:34;;;;;;;5.30;3.25;;;;;;;28.98;30.60;99664.75;4452974;32;35128;-59
2022/07/25 07:49:02;;;;;;;5.50;3.10;;;;;;;29.22;29.78;99665.69;4454025;32;33483;-62
2022/07/25 07:51:31;;;;;;;6.03;3.45;;;;;;;29.62;29.09;99664.97;4462261;32;34480;-59
2022/07/25 07:56:45;;;;;;;7.10;3.55;;;;;;;29.30;29.38;99656.19;4464571;32;34550;-60
2022/07/25 07:59:12;;;;;;;6.72;3.17;;;;;;;29.45;28.75;99664.00;4452826;32;34924;-60
2022/07/25 08:01:40;;;;;;;6.60;3.12;;;;;;;29.38;29.41;99655.03;4461273;32;33239;-59
2022/07/25 08:04:08;;;;;;;5.30;3.40;;;;;;;29.23;28.82;99658.25;4456092;32;33858;-60
2022/07/25 08:06:35;;;;;;;6.50;3.58;;;;;;;29.52;28.97;99650.09;4459959;32;33895;-60
2022/07/25 08:09:03;;;;;;;5.95;3.65;;;;;;;29.49;29.70;99654.16;4462147;32;33912;-59
2022/07/25 08:11:31;;;;;;;5.75;3.45;;;;;;;29.52;29.32;99661.12;4468031;32;34843;-60
2022/07/25 08:13:59;;;;;;;6.20;3.60;;;;;;;29.60;29.46;99652.47;4464140;32;33720;-61
2022/07/25 08:16:26;;;;;;;5.53;3.42;;;;;;;29.89;29.25;99654.28;4456356;32;33661;-60
2022/07/25 08:18:54;;;;;;;6.03;3.70;;;;;;;29.97;28.08;99649.44;4457200;32;32261;-61
2022/07/25 08:21:21;;;;;;;9.07;3.62;;;;;;;30.16;27.77;99645.44;4439295;32;32960;-60
2022/07/25 08:23:49;;;;;;;5.20;2.97;;;;;;;30.07;28.48;99649.66;4455327;32;33737;-60
2022/07/25 08:26:17;;;;;;;5.50;3.30;;;;;;;30.32;28.10;99641.06;4458554;32;34011;-62
2022/07/25 08:28:44;;;;;;;7.55;3.58;;;;;;;29.79;28.56;99642.16;4460357;32;33974;-59
2022/07/25 08:31:13;;;;;;;5.70;3.60;;;;;;;29.21;29.42;99636.44;4466376;32;34431;-62
2022/07/25 08:33:41;;;;;;;7.75;3.58;;;;;;;29.86;28.58;99640.97;4455210;32;33924;-59
2022/07/25 08:36:10;;;;;;;5.18;3.33;;;;;;;30.09;27.80;99636.47;4452307;32;35122;-61
2022/07/25 08:38:38;;;;;;;5.78;3.10;;;;;;;30.22;27.95;99632.59;4453139;32;33777;-60
2022/07/25 08:41:06;;;;;;;5.93;3.15;;;;;;;30.42;27.72;99632.16;4457313;32;31709;-60
2022/07/25 08:43:34;;;;;;;7.43;4.25;;;;;;;30.43;26.99;99633.81;4446445;32;32515;-60
2022/07/25 08:46:04;;;;;;;6.35;3.90;;;;;;;30.06;28.05;99634.19;4466495;32;34196;-60
2022/07/25 08:48:32;;;;;;;5.60;3.75;;;;;;;30.44;28.01;99628.06;4453859;32;32829;-62
2022/07/25 08:51:00;;;;;;;7.03;3.65;;;;;;;30.69;27.31;99629.59;4461697;32;34075;-60
2022/07/25 08:53:29;;;;;;;5.93;4.05;;;;;;;30.51;27.28;99627.91;4441200;32;33499;-60
2022/07/25 08:56:02;;;;;;;4.93;3.50;;;;;;;30.54;27.10;99622.72;4462420;32;33783;-59
2022/07/25 08:58:38;;;;;;;5.35;3.62;;;;;;;30.64;26.99;99624.81;4460044;32;35155;-61
2022/07/25 09:01:06;;;;;;;9.43;3.87;;;;;;;30.96;27.22;99618.78;4455087;32;33176;-61
2022/07/25 09:03:35;;;;;;;5.65;3.50;;;;;;;30.99;26.78;99618.28;4459376;32;33888;-61
2022/07/25 09:06:17;;;;;;;7.53;4.10;;;;;;;30.90;27.28;99620.59;4450753;32;34133;-60
2022/07/25 09:08:56;;;;;;;7.03;4.05;;;;;;;31.13;26.89;99624.28;4461604;32;33322;-60
2022/07/25 09:11:35;;;;;;;7.35;3.70;;;;;;;31.23;26.77;99616.16;4458183;32;33269;-60
2022/07/25 09:14:11;;;;;;;7.30;4.03;;;;;;;31.50;26.23;99608.00;4460142;32;34451;-60
2022/07/25 09:16:43;;;;;;;7.25;3.60;;;;;;;31.57;25.33;99608.66;4462385;32;34983;-62
2022/07/25 09:19:14;;;;;;;8.95;4.75;;;;;;;31.75;24.67;99608.34;4454881;32;33763;-60
2022/07/25 09:21:43;;;;;;;6.47;3.47;;;;;;;31.61;25.64;99603.44;4447468;32;31921;-60
2022/07/25 09:24:15;;;;;;;5.47;3.50;;;;;;;32.02;25.32;99593.75;4456681;32;33072;-62
2022/07/25 09:26:51;;;;;;;6.20;3.58;;;;;;;32.12;25.24;99599.41;4468128;32;33753;-60
2022/07/25 09:29:25;;;;;;;7.35;3.40;;;;;;;32.44;24.75;99596.72;4447330;32;32455;-61
2022/07/25 09:31:54;;;;;;;7.05;3.62;;;;;;;32.00;25.18;99585.69;4461398;32;33581;-60
2022/07/25 09:34:35;;;;;;;6.97;3.97;;;;;;;32.14;24.56;99596.37;4456483;32;33552;-60
2022/07/25 09:37:05;;;;;;;7.05;3.53;;;;;;;32.60;24.80;99594.09;4447471;32;33646;-60
2022/07/25 09:39:39;;;;;;;8.57;3.42;;;;;;;33.05;24.01;99599.22;4455799;32;33656;-62
2022/07/25 09:42:33;;;;;;;5.82;3.70;;;;;;;33.26;23.48;99596.56;4460701;32;34230;-61
2022/07/25 09:45:11;;;;;;;6.47;3.60;;;;;;;32.86;23.86;99581.28;4453963;32;33972;-61
2022/07/25 09:47:54;;;;;;;6.97;3.92;;;;;;;32.94;23.88;99580.81;4456739;32;34434;-60
2022/07/25 09:50:23;;;;;;;5.57;3.75;;;;;;;33.05;23.73;99581.75;4465099;32;34204;-62
2022/07/25 09:52:52;;;;;;;5.50;3.58;;;;;;;33.59;22.82;99582.37;4458398;32;33439;-61
2022/07/25 09:55:20;;;;;;;7.03;3.50;;;;;;;33.68;23.49;99570.75;4459318;32;33981;-61
2022/07/25 09:57:48;;;;;;;6.18;3.10;;;;;;;33.76;22.89;99573.84;4462493;32;33946;-61
2022/07/25 10:00:23;;;;;;;8.13;3.70;;;;;;;33.01;23.35;99555.66;4455578;32;33678;-60
2022/07/25 10:02:54;;;;;;;7.47;3.90;;;;;;;33.46;23.06;99559.81;4453688;32;33553;-60
2022/07/25 10:05:44;;;;;;;5.78;3.62;;;;;;;34.05;22.43;99562.31;4458077;32;33710;-61
2022/07/25 10:08:12;;;;;;;6.70;3.90;;;;;;;33.83;22.82;99568.03;4464181;32;32796;-62
2022/07/25 10:10:40;;;;;;;6.45;3.30;;;;;;;34.03;22.59;99561.75;4460570;32;33615;-60
2022/07/25 10:13:16;;;;;;;6.47;3.53;;;;;;;34.35;21.73;99544.91;4457703;32;33260;-60
2022/07/25 10:15:49;;;;;;;6.75;3.15;;;;;;;34.21;22.19;99555.69;4456472;32;32552;-60
2022/07/25 10:18:19;;;;;;;5.05;3.17;;;;;;;34.29;21.33;99543.22;4452508;32;34006;-61
2022/07/25 10:20:49;;;;;;;5.35;2.97;;;;;;;34.55;21.30;99538.53;4457780;32;33602;-60
2022/07/25 10:23:17;;;;;;;6.37;3.50;;;;;;;34.49;21.15;99536.84;4464443;32;32365;-61
2022/07/25 10:25:45;;;;;;;7.22;3.72;;;;;;;34.23;22.33;99530.44;4454418;32;32556;-60
2022/07/25 10:28:18;;;;;;;6.20;3.72;;;;;;;34.50;21.76;99530.97;4449600;32;34298;-62
2022/07/25 10:30:45;;;;;;;5.57;3.58;;;;;;;34.04;22.00;99536.50;4453236;32;34049;-60
2022/07/25 10:33:16;;;;;;;5.37;3.30;;;;;;;34.08;21.74;99532.06;4450858;32;34952;-60
2022/07/25 10:35:44;;;;;;;4.82;2.80;;;;;;;34.20;21.36;99528.19;4461992;32;33788;-62
2022/07/25 10:38:12;;;;;;;5.22;3.47;;;;;;;34.35;20.90;99525.44;4456327;32;33643;-60
2022/07/25 10:40:45;;;;;;;5.85;3.35;;;;;;;33.72;21.91;99533.03;4448131;32;33920;-60
2022/07/25 10:43:20;;;;;;;5.62;3.30;;;;;;;34.42;21.21;99520.44;4458156;32;33433;-62
2022/07/25 10:45:51;;;;;;;5.12;3.40;;;;;;;34.07;22.00;99513.72;4463109;32;33811;-60
2022/07/25 10:48:22;;;;;;;5.75;3.17;;;;;;;34.24;21.63;99512.66;4460319;32;35491;-60
2022/07/25 10:51:08;;;;;;;7.03;3.78;;;;;;;34.81;21.09;99506.00;4461159;32;34753;-62
2022/07/25 10:53:45;;;;;;;5.15;3.12;;;;;;;34.31;20.89;99508.47;4463942;32;33324;-60
2022/07/25 10:56:21;;;;;;;5.68;3.22;;;;;;;34.23;20.92;99499.88;4455862;32;34030;-61
2022/07/25 10:58:49;;;;;;;5.62;3.45;;;;;;;34.47;20.46;99495.41;4442722;32;32437;-60
2022/07/25 11:01:40;;;;;;;5.18;3.33;;;;;;;34.75;20.24;99501.56;4462571;32;33333;-59
2022/07/25 11:04:14;;;;;;;6.72;3.45;;;;;;;34.78;21.30;99501.00;4443156;32;33543;-60
2022/07/25 11:06:42;;;;;;;7.28;3.25;;;;;;;34.88;19.90;99491.81;4463440;32;33446;-60
2022/07/25 11:09:15;;;;;;;5.05;3.00;;;;;;;35.42;19.07;99483.59;4465398;32;33712;-60
2022/07/25 11:11:48;;;;;;;11.50;3.40;;;;;;;35.20;20.21;99486.75;4454100;32;33855;-59
2022/07/25 11:14:33;;;;;;;6.45;3.35;;;;;;;35.00;19.77;99484.81;4449333;32;32941;-61
2022/07/25 11:17:18;;;;;;;5.30;2.90;;;;;;;35.20;19.74;99474.78;4455706;32;34909;-61
2022/07/25 11:20:03;;;;;;;6.60;3.10;;;;;;;35.15;19.44;99467.28;4458625;32;34030;-60
2022/07/25 11:22:31;;;;;;;4.65;2.87;;;;;;;35.43;19.32;99462.16;4451910;32;34550;-60
2022/07/25 11:25:00;;;;;;;5.30;2.97;;;;;;;35.25;19.78;99452.53;4461736;32;33528;-61
2022/07/25 11:27:30;;;;;;;5.82;3.05;;;;;;;35.61;18.43;99453.19;4457411;32;33910;-62
2022/07/25 11:30:11;;;;;;;5.65;2.83;;;;;;;35.42;18.10;99454.94;4461569;32;35393;-62
2022/07/25 11:32:48;;;;;;;5.47;2.97;;;;;;;35.54;17.99;99444.34;4464030;32;34895;-61
2022/07/25 11:35:20;;;;;;;4.85;2.70;;;;;;;35.54;18.09;99444.34;4459251;32;33303;-61
2022/07/25 11:37:49;;;;;;;6.22;3.12;;;;;;;35.49;18.14;99440.72;4454856;32;33857;-61
2022/07/25 11:40:18;;;;;;;5.20;3.05;;;;;;;35.57;17.91;99437.34;4451321;32;37762;-62
2022/07/25 11:42:47;;;;;;;7.85;2.83;;;;;;;34.97;18.10;99435.34;4449890;32;33897;-61
2022/07/25 11:45:15;;;;;;;4.90;2.67;;;;;;;35.50;18.67;99442.38;4460019;32;33634;-60
2022/07/25 11:47:43;;;;;;;6.87;2.80;;;;;;;35.30;17.53;99441.34;4456316;32;33623;-60
2022/07/25 11:50:13;;;;;;;7.65;3.28;;;;;;;35.03;17.64;99424.25;4454364;32;33979;-62